TimeEDT,TemperatureF,Dew PointF,Humidity,Sea Level PressureIn,VisibilityMPH,Wind Direction,Wind SpeedMPH,Gust SpeedMPH,PrecipitationIn,Events,Conditions,WindDirDegrees,DateUTC
12:18 AM,37.0,25.5,63,30.03,10.0,Calm,Calm,-,N/A,,Clear,0,2013-03-24 04:18:00
12:38 AM,36.5,25.7,65,30.03,10.0,North,3.5,-,N/A,,Clear,360,2013-03-24 04:38:00
12:58 AM,36.5,25.0,63,30.03,10.0,North,3.5,-,N/A,,Clear,10,2013-03-24 04:58:00
1:18 AM,34.0,24.6,69,30.03,10.0,Calm,Calm,-,N/A,,Clear,0,2013-03-24 05:18:00
1:38 AM,33.4,24.8,71,30.02,10.0,Calm,Calm,-,N/A,,Clear,0,2013-03-24 05:38:00
1:58 AM,34.2,24.8,69,30.01,10.0,NNE,4.6,-,N/A,,Clear,20,2013-03-24 05:58:00
2:18 AM,32.7,24.6,72,30.03,10.0,Calm,Calm,-,N/A,,Clear,0,2013-03-24 06:18:00
2:38 AM,32.0,24.8,75,30.03,10.0,Calm,Calm,-,N/A,,Clear,0,2013-03-24 06:38:00
2:58 AM,32.0,24.3,73,30.01,10.0,Calm,Calm,-,N/A,,Clear,0,2013-03-24 06:58:00
3:18 AM,31.5,24.8,76,30.00,10.0,Calm,Calm,-,N/A,,Clear,0,2013-03-24 07:18:00
3:38 AM,32.0,24.4,74,30.00,10.0,Calm,Calm,-,N/A,,Clear,0,2013-03-24 07:38:00
3:58 AM,29.7,23.9,79,30.02,10.0,Calm,Calm,-,N/A,,Clear,0,2013-03-24 07:58:00
4:18 AM,29.5,25.0,83,30.04,10.0,Calm,Calm,-,N/A,,Clear,0,2013-03-24 08:18:00
4:38 AM,30.2,24.4,79,30.04,10.0,Calm,Calm,-,N/A,,Clear,0,2013-03-24 08:38:00
4:58 AM,30.2,24.4,79,30.03,10.0,NE,3.5,-,N/A,,Clear,50,2013-03-24 08:58:00
5:18 AM,28.4,24.1,84,30.03,10.0,Calm,Calm,-,N/A,,Clear,0,2013-03-24 09:18:00
5:38 AM,28.4,24.8,86,30.03,10.0,Calm,Calm,-,N/A,,Clear,0,2013-03-24 09:38:00
5:52 AM,26.6,24.8,93,30.02,10.0,NNE,3.5,-,N/A,,Clear,30,2013-03-24 09:52:00
5:58 AM,27.7,24.6,88,30.02,10.0,NE,3.5,-,N/A,,Clear,40,2013-03-24 09:58:00
6:18 AM,29.8,25.0,82,30.00,10.0,NE,3.5,-,N/A,,Clear,40,2013-03-24 10:18:00
6:38 AM,30.4,25.3,82,30.00,10.0,NE,3.5,-,N/A,,Clear,40,2013-03-24 10:38:00
6:50 AM,28.4,24.8,86,30.01,10.0,Calm,Calm,-,N/A,,Overcast,0,2013-03-24 10:50:00
6:58 AM,29.8,25.3,83,30.01,10.0,Calm,Calm,-,N/A,,Clear,0,2013-03-24 10:58:00
7:19 AM,29.3,26.1,88,30.01,10.0,Calm,Calm,-,N/A,,Clear,0,2013-03-24 11:19:00
7:39 AM,30.6,25.9,83,30.03,10.0,Calm,Calm,-,N/A,,Clear,0,2013-03-24 11:39:00
7:41 AM,30.7,25.9,82,30.02,10.0,Calm,Calm,-,N/A,,Clear,0,2013-03-24 11:41:00
7:50 AM,30.2,26.6,86,30.02,10.0,Calm,Calm,-,N/A,,Overcast,0,2013-03-24 11:50:00
8:58 AM,35.6,26.6,70,30.00,10.0,NNE,5.8,-,N/A,,Overcast,30,2013-03-24 12:58:00
9:45 AM,39.2,26.6,61,29.97,10.0,NE,11.5,-,N/A,,Overcast,40,2013-03-24 13:45:00
10:52 AM,41.0,24.8,53,29.95,10.0,NE,9.2,-,N/A,,Overcast,40,2013-03-24 14:52:00
11:50 AM,41.0,24.8,53,29.94,10.0,ENE,6.9,-,N/A,,Overcast,60,2013-03-24 15:50:00
12:45 PM,41.0,24.8,53,29.90,10.0,ENE,3.5,-,N/A,,Overcast,60,2013-03-24 16:45:00
1:50 PM,42.8,24.8,49,29.84,10.0,East,5.8,-,N/A,,Overcast,90,2013-03-24 17:50:00
2:50 PM,42.8,24.8,49,29.81,10.0,Calm,Calm,-,N/A,,Overcast,0,2013-03-24 18:50:00
3:53 PM,42.8,24.8,49,29.75,10.0,Calm,Calm,-,N/A,,Overcast,0,2013-03-24 19:53:00
4:53 PM,41.0,24.8,53,29.73,10.0,NE,5.8,-,N/A,,Overcast,50,2013-03-24 20:53:00
6:53 PM,41.0,26.6,57,29.77,10.0,NNE,3.5,-,N/A,,Overcast,30,2013-03-24 22:53:00
7:53 PM,33.8,32.0,93,29.79,2.5,ENE,4.6,-,N/A,Snow,Light Snow,70,2013-03-24 23:53:00
8:53 PM,32.0,32.0,100,29.77,1.5,East,4.6,-,N/A,Snow,Light Snow,80,2013-03-25 00:53:00
11:00 PM,32.5,32.5,100,29.72,7.0,ESE,3.5,-,N/A,,Overcast,110,2013-03-25 03:00:00
11:20 PM,32.9,32.9,100,29.73,10.0,SE,4.6,-,N/A,,Overcast,140,2013-03-25 03:20:00
11:40 PM,32.9,32.9,100,29.73,7.0,SSE,3.5,-,N/A,Snow,Light Snow,150,2013-03-25 03:40:00